Mayhew, Mississippi
Current Conditions -  °F | °C
As of 6:45 PM on Tuesday 21 Oct 2014 (Local Time) from KGTR Reporting Station
Clear Clear  
Wind Chill: 19°   Ceiling: Unl
Heat Index: 19°   Visibility: 10mi
Dew Point: 11°   Wind: 6mph
Humidity: 60%   Direction: 10°N
Pressure: 30.01"   Gusts: NA
Location:  33.49°N, 88.63°W
Report Text: KGTR 212345Z 01005KT 10SM SKC 19/11 A3001
Loading
Personal Weather Stations






























Interactive Weather Map
Tropical Storm Tracking
New forecast layout! Learn more

10-Day Weather Forecast

Advertisements
Track Severe Weather on mobile